sensor_id;sensor_type;location;lat;lon;timestamp;P1;durP1;ratioP1;P2;durP2;ratioP2
19414;SDS011;9843;48.882;12.592;2023-03-13T00:00:28;33.33;;;27.00;;
19414;SDS011;9843;48.882;12.592;2023-03-13T00:02:56;29.53;;;25.80;;
19414;SDS011;9843;48.882;12.592;2023-03-13T00:05:23;27.83;;;24.83;;
19414;SDS011;9843;48.882;12.592;2023-03-13T00:07:50;36.07;;;28.57;;
19414;SDS011;9843;48.882;12.592;2023-03-13T00:10:17;33.53;;;27.80;;
19414;SDS011;9843;48.882;12.592;2023-03-13T00:12:44;34.60;;;27.67;;
19414;SDS011;9843;48.882;12.592;2023-03-13T00:15:12;31.30;;;25.43;;
19414;SDS011;9843;48.882;12.592;2023-03-13T00:17:39;29.53;;;26.33;;
19414;SDS011;9843;48.882;12.592;2023-03-13T00:20:07;30.70;;;24.53;;
19414;SDS011;9843;48.882;12.592;2023-03-13T00:22:34;26.87;;;23.70;;
19414;SDS011;9843;48.882;12.592;2023-03-13T00:25:01;27.60;;;23.23;;
19414;SDS011;9843;48.882;12.592;2023-03-13T00:27:31;32.43;;;24.17;;
19414;SDS011;9843;48.882;12.592;2023-03-13T00:29:58;31.80;;;25.00;;
19414;SDS011;9843;48.882;12.592;2023-03-13T00:32:26;30.73;;;25.63;;
19414;SDS011;9843;48.882;12.592;2023-03-13T00:34:53;29.07;;;24.23;;
19414;SDS011;9843;48.882;12.592;2023-03-13T00:37:20;30.17;;;25.73;;
19414;SDS011;9843;48.882;12.592;2023-03-13T00:39:47;33.30;;;25.23;;
19414;SDS011;9843;48.882;12.592;2023-03-13T00:42:14;35.80;;;28.27;;
19414;SDS011;9843;48.882;12.592;2023-03-13T00:44:41;35.50;;;25.60;;
19414;SDS011;9843;48.882;12.592;2023-03-13T00:47:08;30.93;;;25.20;;
19414;SDS011;9843;48.882;12.592;2023-03-13T00:49:37;26.57;;;23.50;;
19414;SDS011;9843;48.882;12.592;2023-03-13T00:52:04;28.97;;;23.90;;
19414;SDS011;9843;48.882;12.592;2023-03-13T00:54:31;32.33;;;25.30;;
19414;SDS011;9843;48.882;12.592;2023-03-13T00:56:58;30.73;;;24.63;;
19414;SDS011;9843;48.882;12.592;2023-03-13T00:59:25;29.87;;;26.43;;
19414;SDS011;9843;48.882;12.592;2023-03-13T01:01:52;35.90;;;25.13;;
19414;SDS011;9843;48.882;12.592;2023-03-13T01:04:19;27.73;;;24.60;;
19414;SDS011;9843;48.882;12.592;2023-03-13T01:06:48;31.63;;;27.00;;
19414;SDS011;9843;48.882;12.592;2023-03-13T01:09:15;30.83;;;24.40;;
19414;SDS011;9843;48.882;12.592;2023-03-13T01:11:44;33.27;;;25.40;;
19414;SDS011;9843;48.882;12.592;2023-03-13T01:14:11;30.23;;;24.73;;
19414;SDS011;9843;48.882;12.592;2023-03-13T01:16:39;33.93;;;26.63;;
19414;SDS011;9843;48.882;12.592;2023-03-13T01:19:07;34.67;;;25.33;;
19414;SDS011;9843;48.882;12.592;2023-03-13T01:21:34;37.97;;;29.30;;
19414;SDS011;9843;48.882;12.592;2023-03-13T01:24:03;32.17;;;25.23;;
19414;SDS011;9843;48.882;12.592;2023-03-13T01:26:30;28.80;;;24.80;;
19414;SDS011;9843;48.882;12.592;2023-03-13T01:28:57;32.03;;;26.53;;
19414;SDS011;9843;48.882;12.592;2023-03-13T01:31:26;37.33;;;26.50;;
19414;SDS011;9843;48.882;12.592;2023-03-13T01:33:54;34.53;;;28.97;;
19414;SDS011;9843;48.882;12.592;2023-03-13T01:36:21;30.27;;;26.10;;
19414;SDS011;9843;48.882;12.592;2023-03-13T01:38:48;33.70;;;27.93;;
19414;SDS011;9843;48.882;12.592;2023-03-13T01:41:17;27.67;;;23.67;;
19414;SDS011;9843;48.882;12.592;2023-03-13T01:43:45;37.97;;;27.50;;
19414;SDS011;9843;48.882;12.592;2023-03-13T01:46:17;33.57;;;26.77;;
19414;SDS011;9843;48.882;12.592;2023-03-13T01:48:46;29.40;;;24.50;;
19414;SDS011;9843;48.882;12.592;2023-03-13T01:51:17;35.87;;;25.20;;
19414;SDS011;9843;48.882;12.592;2023-03-13T01:53:48;34.10;;;26.57;;
19414;SDS011;9843;48.882;12.592;2023-03-13T01:56:16;33.50;;;28.03;;
19414;SDS011;9843;48.882;12.592;2023-03-13T01:58:47;34.23;;;26.03;;
19414;SDS011;9843;48.882;12.592;2023-03-13T02:01:15;37.40;;;27.57;;
19414;SDS011;9843;48.882;12.592;2023-03-13T02:03:42;36.80;;;28.80;;
19414;SDS011;9843;48.882;12.592;2023-03-13T02:06:10;31.83;;;23.33;;
19414;SDS011;9843;48.882;12.592;2023-03-13T02:08:39;33.07;;;26.80;;
19414;SDS011;9843;48.882;12.592;2023-03-13T02:11:09;37.83;;;29.73;;
19414;SDS011;9843;48.882;12.592;2023-03-13T02:13:38;31.83;;;24.77;;
19414;SDS011;9843;48.882;12.592;2023-03-13T02:16:07;29.67;;;24.40;;
19414;SDS011;9843;48.882;12.592;2023-03-13T02:18:34;33.00;;;25.00;;
19414;SDS011;9843;48.882;12.592;2023-03-13T02:21:05;33.20;;;24.10;;
19414;SDS011;9843;48.882;12.592;2023-03-13T02:23:33;42.03;;;29.10;;
19414;SDS011;9843;48.882;12.592;2023-03-13T02:26:04;32.37;;;23.40;;
19414;SDS011;9843;48.882;12.592;2023-03-13T02:28:32;32.47;;;23.23;;
19414;SDS011;9843;48.882;12.592;2023-03-13T02:30:59;32.17;;;25.27;;
19414;SDS011;9843;48.882;12.592;2023-03-13T02:33:28;39.50;;;24.87;;
19414;SDS011;9843;48.882;12.592;2023-03-13T02:35:56;30.83;;;22.87;;
19414;SDS011;9843;48.882;12.592;2023-03-13T02:38:24;31.27;;;25.33;;
19414;SDS011;9843;48.882;12.592;2023-03-13T02:40:52;36.20;;;22.87;;
19414;SDS011;9843;48.882;12.592;2023-03-13T02:43:22;36.33;;;24.17;;
19414;SDS011;9843;48.882;12.592;2023-03-13T02:46:01;33.20;;;24.37;;
19414;SDS011;9843;48.882;12.592;2023-03-13T02:48:29;37.37;;;24.83;;
19414;SDS011;9843;48.882;12.592;2023-03-13T02:50:57;30.67;;;23.43;;
19414;SDS011;9843;48.882;12.592;2023-03-13T02:53:24;34.20;;;24.87;;
19414;SDS011;9843;48.882;12.592;2023-03-13T02:55:51;36.70;;;23.97;;
19414;SDS011;9843;48.882;12.592;2023-03-13T02:58:18;34.57;;;24.73;;
19414;SDS011;9843;48.882;12.592;2023-03-13T03:00:46;31.40;;;24.50;;
19414;SDS011;9843;48.882;12.592;2023-03-13T03:03:13;33.67;;;25.50;;
19414;SDS011;9843;48.882;12.592;2023-03-13T03:05:40;34.10;;;24.60;;
19414;SDS011;9843;48.882;12.592;2023-03-13T03:08:07;34.60;;;26.37;;
19414;SDS011;9843;48.882;12.592;2023-03-13T03:10:35;35.10;;;24.20;;
19414;SDS011;9843;48.882;12.592;2023-03-13T03:13:02;38.77;;;26.97;;
19414;SDS011;9843;48.882;12.592;2023-03-13T03:15:29;40.83;;;26.97;;
19414;SDS011;9843;48.882;12.592;2023-03-13T03:17:57;33.77;;;25.27;;
19414;SDS011;9843;48.882;12.592;2023-03-13T03:20:24;34.60;;;24.73;;
19414;SDS011;9843;48.882;12.592;2023-03-13T03:22:51;35.13;;;24.33;;
19414;SDS011;9843;48.882;12.592;2023-03-13T03:25:18;33.33;;;25.90;;
19414;SDS011;9843;48.882;12.592;2023-03-13T03:27:45;36.37;;;26.40;;
19414;SDS011;9843;48.882;12.592;2023-03-13T03:30:13;41.53;;;26.63;;
19414;SDS011;9843;48.882;12.592;2023-03-13T03:32:40;40.20;;;27.17;;
19414;SDS011;9843;48.882;12.592;2023-03-13T03:35:08;41.73;;;26.97;;
19414;SDS011;9843;48.882;12.592;2023-03-13T03:37:35;39.37;;;27.57;;
19414;SDS011;9843;48.882;12.592;2023-03-13T03:40:02;38.00;;;25.87;;
19414;SDS011;9843;48.882;12.592;2023-03-13T03:42:30;39.13;;;27.03;;
19414;SDS011;9843;48.882;12.592;2023-03-13T03:44:57;37.27;;;27.13;;
19414;SDS011;9843;48.882;12.592;2023-03-13T03:47:24;35.83;;;27.57;;
19414;SDS011;9843;48.882;12.592;2023-03-13T03:49:51;37.20;;;26.23;;
19414;SDS011;9843;48.882;12.592;2023-03-13T03:52:20;36.83;;;27.13;;
19414;SDS011;9843;48.882;12.592;2023-03-13T03:54:47;37.87;;;24.33;;
19414;SDS011;9843;48.882;12.592;2023-03-13T03:57:14;37.33;;;27.27;;
19414;SDS011;9843;48.882;12.592;2023-03-13T03:59:41;30.40;;;25.07;;
19414;SDS011;9843;48.882;12.592;2023-03-13T04:02:08;33.33;;;25.63;;
19414;SDS011;9843;48.882;12.592;2023-03-13T04:04:35;34.13;;;26.10;;
19414;SDS011;9843;48.882;12.592;2023-03-13T04:07:02;29.67;;;23.07;;
19414;SDS011;9843;48.882;12.592;2023-03-13T04:09:30;32.67;;;25.70;;
19414;SDS011;9843;48.882;12.592;2023-03-13T04:11:57;30.87;;;23.73;;
19414;SDS011;9843;48.882;12.592;2023-03-13T04:14:24;35.30;;;24.43;;
19414;SDS011;9843;48.882;12.592;2023-03-13T04:16:51;33.40;;;25.33;;
19414;SDS011;9843;48.882;12.592;2023-03-13T04:19:19;36.63;;;26.00;;
19414;SDS011;9843;48.882;12.592;2023-03-13T04:21:46;32.80;;;23.67;;
19414;SDS011;9843;48.882;12.592;2023-03-13T04:24:13;31.30;;;23.23;;
19414;SDS011;9843;48.882;12.592;2023-03-13T04:26:41;32.97;;;24.70;;
19414;SDS011;9843;48.882;12.592;2023-03-13T04:29:08;33.27;;;25.47;;
19414;SDS011;9843;48.882;12.592;2023-03-13T04:31:35;38.30;;;25.70;;
19414;SDS011;9843;48.882;12.592;2023-03-13T04:34:02;28.53;;;24.50;;
19414;SDS011;9843;48.882;12.592;2023-03-13T04:36:29;30.67;;;24.73;;
19414;SDS011;9843;48.882;12.592;2023-03-13T04:38:56;36.10;;;23.50;;
19414;SDS011;9843;48.882;12.592;2023-03-13T04:41:23;33.90;;;25.37;;
19414;SDS011;9843;48.882;12.592;2023-03-13T04:43:52;34.63;;;26.33;;
19414;SDS011;9843;48.882;12.592;2023-03-13T04:46:19;30.57;;;23.97;;
19414;SDS011;9843;48.882;12.592;2023-03-13T04:48:46;30.10;;;23.73;;
19414;SDS011;9843;48.882;12.592;2023-03-13T04:51:13;31.77;;;23.43;;
19414;SDS011;9843;48.882;12.592;2023-03-13T04:53:40;29.77;;;22.50;;
19414;SDS011;9843;48.882;12.592;2023-03-13T04:56:07;34.03;;;24.17;;
19414;SDS011;9843;48.882;12.592;2023-03-13T04:58:34;32.77;;;22.53;;
19414;SDS011;9843;48.882;12.592;2023-03-13T05:01:03;27.57;;;24.03;;
19414;SDS011;9843;48.882;12.592;2023-03-13T05:03:30;32.80;;;24.93;;
19414;SDS011;9843;48.882;12.592;2023-03-13T05:05:57;32.90;;;24.93;;
19414;SDS011;9843;48.882;12.592;2023-03-13T05:08:24;28.33;;;22.13;;
19414;SDS011;9843;48.882;12.592;2023-03-13T05:10:51;29.03;;;22.40;;
19414;SDS011;9843;48.882;12.592;2023-03-13T05:13:18;31.30;;;22.30;;
19414;SDS011;9843;48.882;12.592;2023-03-13T05:15:45;30.83;;;24.27;;
19414;SDS011;9843;48.882;12.592;2023-03-13T05:18:14;27.40;;;21.13;;
19414;SDS011;9843;48.882;12.592;2023-03-13T05:20:41;35.90;;;26.20;;
19414;SDS011;9843;48.882;12.592;2023-03-13T05:23:08;29.47;;;22.70;;
19414;SDS011;9843;48.882;12.592;2023-03-13T05:25:35;25.97;;;19.60;;
19414;SDS011;9843;48.882;12.592;2023-03-13T05:28:02;27.03;;;20.77;;
19414;SDS011;9843;48.882;12.592;2023-03-13T05:30:29;30.73;;;20.13;;
19414;SDS011;9843;48.882;12.592;2023-03-13T05:32:56;23.13;;;18.93;;
19414;SDS011;9843;48.882;12.592;2023-03-13T05:35:25;26.47;;;20.80;;
19414;SDS011;9843;48.882;12.592;2023-03-13T05:37:52;25.73;;;17.47;;
19414;SDS011;9843;48.882;12.592;2023-03-13T05:40:19;28.57;;;19.03;;
19414;SDS011;9843;48.882;12.592;2023-03-13T05:42:46;22.43;;;17.33;;
19414;SDS011;9843;48.882;12.592;2023-03-13T05:45:13;22.20;;;17.27;;
19414;SDS011;9843;48.882;12.592;2023-03-13T05:47:40;17.77;;;15.73;;
19414;SDS011;9843;48.882;12.592;2023-03-13T05:50:07;29.67;;;18.43;;
19414;SDS011;9843;48.882;12.592;2023-03-13T05:52:36;25.80;;;18.47;;
19414;SDS011;9843;48.882;12.592;2023-03-13T05:55:03;23.80;;;20.70;;
19414;SDS011;9843;48.882;12.592;2023-03-13T05:57:30;27.13;;;17.97;;
19414;SDS011;9843;48.882;12.592;2023-03-13T05:59:57;23.67;;;18.37;;
19414;SDS011;9843;48.882;12.592;2023-03-13T06:02:24;21.83;;;17.30;;
19414;SDS011;9843;48.882;12.592;2023-03-13T06:04:51;22.57;;;18.13;;
19414;SDS011;9843;48.882;12.592;2023-03-13T06:07:18;18.97;;;14.67;;
19414;SDS011;9843;48.882;12.592;2023-03-13T06:09:47;18.80;;;14.20;;
19414;SDS011;9843;48.882;12.592;2023-03-13T06:12:14;17.93;;;16.23;;
19414;SDS011;9843;48.882;12.592;2023-03-13T06:14:41;15.53;;;13.97;;
19414;SDS011;9843;48.882;12.592;2023-03-13T06:17:08;18.63;;;14.40;;
19414;SDS011;9843;48.882;12.592;2023-03-13T06:19:35;14.17;;;12.63;;
19414;SDS011;9843;48.882;12.592;2023-03-13T06:22:02;32.33;;;17.00;;
19414;SDS011;9843;48.882;12.592;2023-03-13T06:24:29;21.87;;;13.33;;
19414;SDS011;9843;48.882;12.592;2023-03-13T06:26:58;29.00;;;13.53;;
19414;SDS011;9843;48.882;12.592;2023-03-13T06:29:25;15.37;;;12.33;;
19414;SDS011;9843;48.882;12.592;2023-03-13T06:31:52;18.30;;;10.73;;
19414;SDS011;9843;48.882;12.592;2023-03-13T06:34:19;14.30;;;12.70;;
19414;SDS011;9843;48.882;12.592;2023-03-13T06:36:46;15.00;;;13.43;;
19414;SDS011;9843;48.882;12.592;2023-03-13T06:39:13;13.83;;;11.93;;
19414;SDS011;9843;48.882;12.592;2023-03-13T06:41:40;18.47;;;11.17;;
19414;SDS011;9843;48.882;12.592;2023-03-13T06:44:09;16.33;;;12.13;;
19414;SDS011;9843;48.882;12.592;2023-03-13T06:46:36;19.67;;;13.63;;
19414;SDS011;9843;48.882;12.592;2023-03-13T06:49:03;11.60;;;10.03;;
19414;SDS011;9843;48.882;12.592;2023-03-13T06:51:30;14.50;;;11.60;;
19414;SDS011;9843;48.882;12.592;2023-03-13T06:53:57;12.80;;;11.33;;
19414;SDS011;9843;48.882;12.592;2023-03-13T06:56:24;16.03;;;12.27;;
19414;SDS011;9843;48.882;12.592;2023-03-13T06:58:51;13.90;;;10.67;;
19414;SDS011;9843;48.882;12.592;2023-03-13T07:01:20;12.37;;;10.50;;
19414;SDS011;9843;48.882;12.592;2023-03-13T07:03:47;12.53;;;9.37;;
19414;SDS011;9843;48.882;12.592;2023-03-13T07:06:14;14.03;;;9.43;;
19414;SDS011;9843;48.882;12.592;2023-03-13T07:08:42;9.97;;;8.83;;
19414;SDS011;9843;48.882;12.592;2023-03-13T07:11:10;12.40;;;9.50;;
19414;SDS011;9843;48.882;12.592;2023-03-13T07:13:37;10.23;;;9.13;;
19414;SDS011;9843;48.882;12.592;2023-03-13T07:16:05;9.33;;;8.43;;
19414;SDS011;9843;48.882;12.592;2023-03-13T07:18:34;9.80;;;8.87;;
19414;SDS011;9843;48.882;12.592;2023-03-13T07:21:02;9.57;;;8.77;;
19414;SDS011;9843;48.882;12.592;2023-03-13T07:23:30;18.53;;;11.70;;
19414;SDS011;9843;48.882;12.592;2023-03-13T07:25:58;11.47;;;10.33;;
19414;SDS011;9843;48.882;12.592;2023-03-13T07:28:26;10.77;;;9.67;;
19414;SDS011;9843;48.882;12.592;2023-03-13T07:30:53;11.60;;;8.87;;
19414;SDS011;9843;48.882;12.592;2023-03-13T07:33:20;10.40;;;9.30;;
19414;SDS011;9843;48.882;12.592;2023-03-13T07:35:49;15.87;;;9.93;;
19414;SDS011;9843;48.882;12.592;2023-03-13T07:38:16;9.97;;;9.07;;
19414;SDS011;9843;48.882;12.592;2023-03-13T07:40:47;9.20;;;8.40;;
19414;SDS011;9843;48.882;12.592;2023-03-13T07:43:14;12.83;;;10.10;;
19414;SDS011;9843;48.882;12.592;2023-03-13T07:45:48;14.20;;;10.27;;
19414;SDS011;9843;48.882;12.592;2023-03-13T07:48:16;12.97;;;9.70;;
19414;SDS011;9843;48.882;12.592;2023-03-13T07:50:43;12.43;;;10.37;;
19414;SDS011;9843;48.882;12.592;2023-03-13T07:53:11;11.27;;;10.13;;
19414;SDS011;9843;48.882;12.592;2023-03-13T07:55:50;11.77;;;9.40;;
19414;SDS011;9843;48.882;12.592;2023-03-13T07:58:17;10.30;;;9.30;;
19414;SDS011;9843;48.882;12.592;2023-03-13T08:00:44;16.17;;;10.88;;
19414;SDS011;9843;48.882;12.592;2023-03-13T08:03:11;10.73;;;9.53;;
19414;SDS011;9843;48.882;12.592;2023-03-13T08:05:38;11.33;;;9.00;;
19414;SDS011;9843;48.882;12.592;2023-03-13T08:08:05;10.57;;;7.97;;
19414;SDS011;9843;48.882;12.592;2023-03-13T08:10:33;10.87;;;8.83;;
19414;SDS011;9843;48.882;12.592;2023-03-13T08:13:01;9.70;;;8.23;;
19414;SDS011;9843;48.882;12.592;2023-03-13T08:15:28;10.83;;;9.53;;
19414;SDS011;9843;48.882;12.592;2023-03-13T08:17:55;10.23;;;7.90;;
19414;SDS011;9843;48.882;12.592;2023-03-13T08:20:22;9.40;;;6.87;;
19414;SDS011;9843;48.882;12.592;2023-03-13T08:22:49;10.90;;;8.63;;
19414;SDS011;9843;48.882;12.592;2023-03-13T08:25:16;10.77;;;6.83;;
19414;SDS011;9843;48.882;12.592;2023-03-13T08:27:45;11.13;;;7.00;;
19414;SDS011;9843;48.882;12.592;2023-03-13T08:30:12;8.05;;;7.22;;
19414;SDS011;9843;48.882;12.592;2023-03-13T08:32:39;8.30;;;7.60;;
19414;SDS011;9843;48.882;12.592;2023-03-13T08:35:07;7.80;;;7.10;;
19414;SDS011;9843;48.882;12.592;2023-03-13T08:37:34;8.75;;;6.85;;
19414;SDS011;9843;48.882;12.592;2023-03-13T08:40:01;10.10;;;7.47;;
19414;SDS011;9843;48.882;12.592;2023-03-13T08:42:34;7.17;;;6.50;;
19414;SDS011;9843;48.882;12.592;2023-03-13T08:45:03;7.17;;;6.43;;
19414;SDS011;9843;48.882;12.592;2023-03-13T08:47:30;8.90;;;7.37;;
19414;SDS011;9843;48.882;12.592;2023-03-13T08:49:57;14.38;;;8.90;;
19414;SDS011;9843;48.882;12.592;2023-03-13T08:52:24;7.77;;;7.03;;
19414;SDS011;9843;48.882;12.592;2023-03-13T08:54:51;6.77;;;6.17;;
19414;SDS011;9843;48.882;12.592;2023-03-13T08:57:18;8.37;;;7.47;;
19414;SDS011;9843;48.882;12.592;2023-03-13T08:59:46;8.23;;;7.10;;
19414;SDS011;9843;48.882;12.592;2023-03-13T09:02:14;9.70;;;7.50;;
19414;SDS011;9843;48.882;12.592;2023-03-13T09:04:44;11.10;;;10.03;;
19414;SDS011;9843;48.882;12.592;2023-03-13T09:07:11;9.03;;;7.77;;
19414;SDS011;9843;48.882;12.592;2023-03-13T09:09:38;7.30;;;6.70;;
19414;SDS011;9843;48.882;12.592;2023-03-13T09:12:06;7.93;;;7.13;;
19414;SDS011;9843;48.882;12.592;2023-03-13T09:14:33;10.70;;;6.60;;
19414;SDS011;9843;48.882;12.592;2023-03-13T09:17:00;9.93;;;7.63;;
19414;SDS011;9843;48.882;12.592;2023-03-13T09:19:29;8.77;;;6.73;;
19414;SDS011;9843;48.882;12.592;2023-03-13T09:21:56;8.63;;;5.77;;
19414;SDS011;9843;48.882;12.592;2023-03-13T09:24:23;6.93;;;5.57;;
19414;SDS011;9843;48.882;12.592;2023-03-13T09:26:51;7.40;;;5.57;;
19414;SDS011;9843;48.882;12.592;2023-03-13T09:29:18;6.13;;;5.60;;
19414;SDS011;9843;48.882;12.592;2023-03-13T09:31:45;5.60;;;5.10;;
19414;SDS011;9843;48.882;12.592;2023-03-13T09:34:12;7.20;;;5.10;;
19414;SDS011;9843;48.882;12.592;2023-03-13T09:36:41;7.17;;;6.00;;
19414;SDS011;9843;48.882;12.592;2023-03-13T09:39:08;5.60;;;5.10;;
19414;SDS011;9843;48.882;12.592;2023-03-13T09:41:38;9.50;;;4.80;;
19414;SDS011;9843;48.882;12.592;2023-03-13T09:44:07;5.90;;;5.30;;
19414;SDS011;9843;48.882;12.592;2023-03-13T09:46:37;5.33;;;4.80;;
19414;SDS011;9843;48.882;12.592;2023-03-13T09:49:07;6.27;;;5.20;;
19414;SDS011;9843;48.882;12.592;2023-03-13T09:51:37;9.07;;;5.00;;
19414;SDS011;9843;48.882;12.592;2023-03-13T09:54:08;5.17;;;4.67;;
19414;SDS011;9843;48.882;12.592;2023-03-13T09:56:41;4.87;;;4.47;;
19414;SDS011;9843;48.882;12.592;2023-03-13T09:59:12;4.80;;;4.40;;
19414;SDS011;9843;48.882;12.592;2023-03-13T10:01:41;6.37;;;5.77;;
19414;SDS011;9843;48.882;12.592;2023-03-13T10:04:11;9.43;;;5.23;;
19414;SDS011;9843;48.882;12.592;2023-03-13T10:06:40;4.90;;;4.50;;
19414;SDS011;9843;48.882;12.592;2023-03-13T10:09:15;5.70;;;4.77;;
19414;SDS011;9843;48.882;12.592;2023-03-13T10:11:45;6.87;;;4.40;;
19414;SDS011;9843;48.882;12.592;2023-03-13T10:14:15;5.20;;;4.10;;
19414;SDS011;9843;48.882;12.592;2023-03-13T10:16:44;4.40;;;4.03;;
19414;SDS011;9843;48.882;12.592;2023-03-13T10:19:13;5.83;;;4.10;;
19414;SDS011;9843;48.882;12.592;2023-03-13T10:21:42;13.13;;;7.27;;
19414;SDS011;9843;48.882;12.592;2023-03-13T10:24:15;6.13;;;5.13;;
19414;SDS011;9843;48.882;12.592;2023-03-13T10:26:43;18.67;;;7.13;;
19414;SDS011;9843;48.882;12.592;2023-03-13T10:29:16;6.93;;;5.77;;
19414;SDS011;9843;48.882;12.592;2023-03-13T10:31:46;6.50;;;5.13;;
19414;SDS011;9843;48.882;12.592;2023-03-13T10:34:17;5.80;;;5.27;;
19414;SDS011;9843;48.882;12.592;2023-03-13T10:36:45;6.00;;;5.37;;
19414;SDS011;9843;48.882;12.592;2023-03-13T10:39:15;5.63;;;4.90;;
19414;SDS011;9843;48.882;12.592;2023-03-13T10:41:43;5.63;;;4.70;;
19414;SDS011;9843;48.882;12.592;2023-03-13T10:44:14;8.50;;;5.70;;
19414;SDS011;9843;48.882;12.592;2023-03-13T10:46:42;5.57;;;4.50;;
19414;SDS011;9843;48.882;12.592;2023-03-13T10:49:12;5.33;;;4.70;;
19414;SDS011;9843;48.882;12.592;2023-03-13T10:51:40;6.63;;;4.67;;
19414;SDS011;9843;48.882;12.592;2023-03-13T10:54:18;6.03;;;4.30;;
19414;SDS011;9843;48.882;12.592;2023-03-13T10:56:47;5.40;;;4.90;;
19414;SDS011;9843;48.882;12.592;2023-03-13T10:59:17;4.70;;;4.30;;
19414;SDS011;9843;48.882;12.592;2023-03-13T11:01:45;7.33;;;4.90;;
19414;SDS011;9843;48.882;12.592;2023-03-13T11:04:24;4.20;;;3.90;;
19414;SDS011;9843;48.882;12.592;2023-03-13T11:06:57;7.87;;;4.07;;
19414;SDS011;9843;48.882;12.592;2023-03-13T11:09:26;4.57;;;4.10;;
19414;SDS011;9843;48.882;12.592;2023-03-13T11:11:54;3.97;;;3.57;;
19414;SDS011;9843;48.882;12.592;2023-03-13T11:14:22;4.90;;;3.43;;
19414;SDS011;9843;48.882;12.592;2023-03-13T11:16:50;3.53;;;3.23;;
19414;SDS011;9843;48.882;12.592;2023-03-13T11:19:27;6.07;;;3.00;;
19414;SDS011;9843;48.882;12.592;2023-03-13T11:24:43;6.13;;;4.00;;
19414;SDS011;9843;48.882;12.592;2023-03-13T11:27:14;5.00;;;3.10;;
19414;SDS011;9843;48.882;12.592;2023-03-13T11:29:47;4.37;;;3.97;;
19414;SDS011;9843;48.882;12.592;2023-03-13T11:32:19;13.70;;;4.10;;
19414;SDS011;9843;48.882;12.592;2023-03-13T11:34:49;3.20;;;2.90;;
19414;SDS011;9843;48.882;12.592;2023-03-13T11:37:18;3.97;;;3.67;;
19414;SDS011;9843;48.882;12.592;2023-03-13T11:39:49;5.50;;;3.07;;
19414;SDS011;9843;48.882;12.592;2023-03-13T11:45:26;7.10;;;4.27;;
19414;SDS011;9843;48.882;12.592;2023-03-13T11:47:55;3.27;;;2.93;;
19414;SDS011;9843;48.882;12.592;2023-03-13T11:50:32;2.77;;;2.53;;
19414;SDS011;9843;48.882;12.592;2023-03-13T11:53:20;5.60;;;2.90;;
19414;SDS011;9843;48.882;12.592;2023-03-13T11:55:52;4.53;;;3.25;;
19414;SDS011;9843;48.882;12.592;2023-03-13T11:58:27;2.40;;;2.20;;
19414;SDS011;9843;48.882;12.592;2023-03-13T12:00:58;4.00;;;3.10;;
19414;SDS011;9843;48.882;12.592;2023-03-13T12:03:29;3.53;;;2.57;;
19414;SDS011;9843;48.882;12.592;2023-03-13T12:05:57;4.17;;;2.90;;
19414;SDS011;9843;48.882;12.592;2023-03-13T12:08:27;4.43;;;3.00;;
19414;SDS011;9843;48.882;12.592;2023-03-13T12:10:59;4.90;;;3.37;;
19414;SDS011;9843;48.882;12.592;2023-03-13T12:13:28;3.60;;;3.07;;
19414;SDS011;9843;48.882;12.592;2023-03-13T12:15:57;6.33;;;3.77;;
19414;SDS011;9843;48.882;12.592;2023-03-13T12:18:28;5.27;;;4.00;;
19414;SDS011;9843;48.882;12.592;2023-03-13T12:20:57;4.77;;;3.73;;
19414;SDS011;9843;48.882;12.592;2023-03-13T12:23:27;5.83;;;3.33;;
19414;SDS011;9843;48.882;12.592;2023-03-13T12:25:59;4.43;;;3.77;;
19414;SDS011;9843;48.882;12.592;2023-03-13T12:28:31;3.70;;;3.40;;
19414;SDS011;9843;48.882;12.592;2023-03-13T12:31:00;4.17;;;3.83;;
19414;SDS011;9843;48.882;12.592;2023-03-13T12:33:30;2.97;;;2.77;;
19414;SDS011;9843;48.882;12.592;2023-03-13T12:36:00;3.37;;;3.03;;
19414;SDS011;9843;48.882;12.592;2023-03-13T12:38:30;3.60;;;3.20;;
19414;SDS011;9843;48.882;12.592;2023-03-13T12:41:03;3.67;;;2.93;;
19414;SDS011;9843;48.882;12.592;2023-03-13T12:43:35;7.43;;;4.00;;
19414;SDS011;9843;48.882;12.592;2023-03-13T12:46:11;4.10;;;3.70;;
19414;SDS011;9843;48.882;12.592;2023-03-13T12:48:53;8.43;;;4.33;;
19414;SDS011;9843;48.882;12.592;2023-03-13T12:51:28;8.13;;;3.27;;
19414;SDS011;9843;48.882;12.592;2023-03-13T12:54:08;8.20;;;3.37;;
19414;SDS011;9843;48.882;12.592;2023-03-13T12:56:44;4.47;;;3.40;;
19414;SDS011;9843;48.882;12.592;2023-03-13T12:59:18;4.37;;;2.60;;
19414;SDS011;9843;48.882;12.592;2023-03-13T13:01:56;6.43;;;4.50;;
19414;SDS011;9843;48.882;12.592;2023-03-13T13:04:24;7.03;;;4.30;;
19414;SDS011;9843;48.882;12.592;2023-03-13T13:06:56;4.80;;;3.33;;
19414;SDS011;9843;48.882;12.592;2023-03-13T13:09:27;2.53;;;2.33;;
19414;SDS011;9843;48.882;12.592;2023-03-13T13:11:57;6.80;;;3.17;;
19414;SDS011;9843;48.882;12.592;2023-03-13T13:20:26;4.97;;;2.97;;
19414;SDS011;9843;48.882;12.592;2023-03-13T13:22:54;4.30;;;2.40;;
19414;SDS011;9843;48.882;12.592;2023-03-13T13:25:26;3.27;;;2.43;;
19414;SDS011;9843;48.882;12.592;2023-03-13T13:27:54;6.57;;;1.97;;
19414;SDS011;9843;48.882;12.592;2023-03-13T13:30:29;2.37;;;2.00;;
19414;SDS011;9843;48.882;12.592;2023-03-13T13:32:58;4.20;;;3.00;;
19414;SDS011;9843;48.882;12.592;2023-03-13T13:35:46;4.63;;;2.30;;
19414;SDS011;9843;48.882;12.592;2023-03-13T13:38:27;2.80;;;1.93;;
19414;SDS011;9843;48.882;12.592;2023-03-13T13:41:01;4.70;;;2.87;;
19414;SDS011;9843;48.882;12.592;2023-03-13T13:43:31;3.67;;;2.70;;
19414;SDS011;9843;48.882;12.592;2023-03-13T13:46:00;116.80;;;15.57;;
19414;SDS011;9843;48.882;12.592;2023-03-13T13:48:28;5.13;;;2.10;;
19414;SDS011;9843;48.882;12.592;2023-03-13T13:53:49;10.00;;;2.73;;
19414;SDS011;9843;48.882;12.592;2023-03-13T13:56:29;3.77;;;2.67;;
19414;SDS011;9843;48.882;12.592;2023-03-13T13:58:59;5.27;;;2.33;;
19414;SDS011;9843;48.882;12.592;2023-03-13T14:01:27;5.40;;;1.70;;
19414;SDS011;9843;48.882;12.592;2023-03-13T14:03:57;3.07;;;2.23;;
19414;SDS011;9843;48.882;12.592;2023-03-13T14:06:27;9.13;;;2.27;;
19414;SDS011;9843;48.882;12.592;2023-03-13T14:08:56;12.10;;;3.77;;
19414;SDS011;9843;48.882;12.592;2023-03-13T14:11:28;3.03;;;2.23;;
19414;SDS011;9843;48.882;12.592;2023-03-13T14:14:08;8.30;;;2.20;;
19414;SDS011;9843;48.882;12.592;2023-03-13T14:16:36;2.77;;;2.03;;
19414;SDS011;9843;48.882;12.592;2023-03-13T14:19:03;12.77;;;4.50;;
19414;SDS011;9843;48.882;12.592;2023-03-13T14:21:30;7.13;;;2.37;;
19414;SDS011;9843;48.882;12.592;2023-03-13T14:23:58;6.70;;;2.00;;
19414;SDS011;9843;48.882;12.592;2023-03-13T14:26:26;14.03;;;4.27;;
19414;SDS011;9843;48.882;12.592;2023-03-13T14:28:55;3.13;;;2.20;;
19414;SDS011;9843;48.882;12.592;2023-03-13T14:31:25;2.17;;;1.97;;
19414;SDS011;9843;48.882;12.592;2023-03-13T14:33:53;3.57;;;2.97;;
19414;SDS011;9843;48.882;12.592;2023-03-13T14:36:20;3.60;;;3.13;;
19414;SDS011;9843;48.882;12.592;2023-03-13T14:38:51;3.23;;;2.90;;
19414;SDS011;9843;48.882;12.592;2023-03-13T14:41:21;2.97;;;2.60;;
19414;SDS011;9843;48.882;12.592;2023-03-13T14:43:49;7.90;;;3.00;;
19414;SDS011;9843;48.882;12.592;2023-03-13T14:46:20;3.40;;;2.70;;
19414;SDS011;9843;48.882;12.592;2023-03-13T14:48:52;30.13;;;6.70;;
19414;SDS011;9843;48.882;12.592;2023-03-13T14:51:20;3.67;;;2.27;;
19414;SDS011;9843;48.882;12.592;2023-03-13T14:53:53;2.20;;;2.00;;
19414;SDS011;9843;48.882;12.592;2023-03-13T14:56:28;17.07;;;2.83;;